Time;durP1;ratioP1;P1;durP2;ratioP2;P2;SDS_P1;SDS_P2;PMS_P1;PMS_P2;Temp;Humidity;BMP_temperature;BMP_pressure;BME280_temperature;BME280_humidity;BME280_pressure;Samples;Min_cycle;Max_cycle;Signal;HPM_P1;HPM_P2
2023/01/20 00:00:33;;;;;;;48.17;28.15;;;25.90;99.90;;;;;;5095318;28;20028;-69
2023/01/20 00:03:00;;;;;;;46.45;26.70;;;25.90;99.90;;;;;;5076048;28;20385;-69
2023/01/20 00:05:26;;;;;;;44.33;26.02;;;25.80;99.90;;;;;;5076356;28;20023;-70
2023/01/20 00:07:53;;;;;;;44.65;26.23;;;25.80;99.90;;;;;;5079595;28;20021;-69
2023/01/20 00:10:19;;;;;;;42.40;27.05;;;25.80;99.90;;;;;;5076415;28;20421;-70
2023/01/20 00:12:46;;;;;;;52.38;27.05;;;25.80;99.90;;;;;;5076607;28;20048;-69
2023/01/20 00:15:12;;;;;;;52.50;28.90;;;25.80;99.90;;;;;;5076301;28;20427;-70
2023/01/20 00:17:39;;;;;;;47.80;29.45;;;25.70;99.90;;;;;;5076392;28;20016;-71
2023/01/20 00:20:06;;;;;;;46.97;27.42;;;25.70;99.90;;;;;;5091199;28;20111;-73
2023/01/20 00:22:33;;;;;;;45.03;27.85;;;25.70;99.90;;;;;;5087981;28;20277;-70
2023/01/20 00:24:59;;;;;;;53.90;30.38;;;25.80;99.90;;;;;;5086747;28;20028;-69
2023/01/20 00:27:26;;;;;;;60.95;35.67;;;25.80;99.90;;;;;;5085349;28;20025;-73
2023/01/20 00:29:52;;;;;;;52.25;31.48;;;25.80;99.90;;;;;;5084950;28;20469;-71
2023/01/20 00:32:19;;;;;;;55.08;30.67;;;25.80;99.90;;;;;;5086305;28;20020;-70
2023/01/20 00:34:45;;;;;;;49.33;27.15;;;25.90;99.90;;;;;;5085312;28;20019;-71
2023/01/20 00:37:12;;;;;;;43.92;24.15;;;25.90;99.90;;;;;;5084854;28;20061;-71
2023/01/20 00:39:38;;;;;;;44.58;24.88;;;25.90;99.90;;;;;;5086421;28;20087;-71
2023/01/20 00:42:05;;;;;;;53.33;28.20;;;25.90;99.90;;;;;;5084762;28;20029;-71
2023/01/20 00:44:31;;;;;;;47.33;27.20;;;26.00;99.90;;;;;;5101042;28;20078;-71
2023/01/20 00:46:58;;;;;;;41.45;22.27;;;26.10;99.90;;;;;;5116022;28;20024;-70
2023/01/20 00:49:25;;;;;;;41.28;21.55;;;26.10;99.90;;;;;;5091592;28;20028;-71
2023/01/20 00:51:51;;;;;;;40.97;22.63;;;26.10;99.90;;;;;;5086073;28;20028;-71
2023/01/20 00:54:18;;;;;;;40.85;21.58;;;26.20;99.90;;;;;;5084413;28;20015;-70
2023/01/20 00:56:44;;;;;;;42.92;23.58;;;26.20;99.90;;;;;;5085087;28;20012;-70
2023/01/20 00:59:11;;;;;;;39.75;20.83;;;26.20;99.90;;;;;;5086213;28;20024;-70
2023/01/20 01:01:37;;;;;;;43.10;20.42;;;26.30;99.90;;;;;;5084334;28;20016;-70
2023/01/20 01:04:04;;;;;;;36.22;17.88;;;26.30;99.90;;;;;;5084806;28;20042;-71
2023/01/20 01:06:30;;;;;;;34.97;16.48;;;26.30;99.90;;;;;;5086034;28;20078;-70
2023/01/20 01:08:57;;;;;;;30.50;17.25;;;26.30;99.90;;;;;;5084428;28;20016;-70
2023/01/20 01:11:25;;;;;;;33.60;17.25;;;26.30;99.90;;;;;;5084926;28;20032;-69
2023/01/20 01:13:54;;;;;;;29.30;16.38;;;26.40;99.90;;;;;;5085737;28;20107;-70
2023/01/20 01:16:20;;;;;;;31.52;16.45;;;26.40;99.90;;;;;;5084484;28;20014;-69
2023/01/20 01:18:47;;;;;;;31.30;16.13;;;26.40;99.90;;;;;;5084190;28;20016;-72
2023/01/20 01:21:16;;;;;;;34.08;19.05;;;26.50;99.90;;;;;;5085630;28;20300;-72
2023/01/20 01:23:43;;;;;;;31.58;16.65;;;26.50;99.90;;;;;;5092741;28;20028;-72
2023/01/20 01:26:10;;;;;;;31.65;16.48;;;26.50;99.90;;;;;;5088851;28;20080;-74
2023/01/20 01:28:37;;;;;;;30.75;16.80;;;26.50;99.90;;;;;;5085793;28;20423;-71
2023/01/20 01:31:05;;;;;;;24.08;15.73;;;26.50;99.90;;;;;;5084420;28;20032;-70
2023/01/20 01:33:33;;;;;;;26.67;14.55;;;26.50;99.90;;;;;;5082930;28;20043;-73
2023/01/20 01:36:01;;;;;;;33.38;18.95;;;26.60;99.90;;;;;;5085005;28;20107;-70
2023/01/20 01:38:28;;;;;;;25.25;13.50;;;26.60;99.90;;;;;;5084866;28;20039;-70
2023/01/20 01:40:55;;;;;;;27.20;15.23;;;26.70;99.90;;;;;;5083004;28;20052;-70
2023/01/20 01:43:25;;;;;;;35.17;14.40;;;26.70;99.90;;;;;;5084479;28;20077;-69
2023/01/20 01:45:52;;;;;;;35.45;15.02;;;26.80;99.90;;;;;;5085255;28;20035;-70
2023/01/20 01:48:24;;;;;;;25.98;13.90;;;26.80;99.90;;;;;;5083528;28;20035;-70
2023/01/20 01:50:57;;;;;;;;;;;26.90;99.90;;;;;;5084201;28;20622;-70
2023/01/20 01:53:26;;;;;;;22.63;12.57;;;27.00;99.90;;;;;;5082808;28;19999;-68
2023/01/20 01:56:01;;;;;;;26.25;12.98;;;27.00;99.90;;;;;;5083039;28;20081;-70
2023/01/20 01:58:33;;;;;;;25.55;12.98;;;27.00;99.90;;;;;;5090157;28;20028;-69
2023/01/20 02:00:59;;;;;;;;;;;27.00;99.90;;;;;;5091979;28;20063;-69
2023/01/20 02:03:32;;;;;;;28.65;14.48;;;27.10;99.90;;;;;;5084881;28;19905;-69
2023/01/20 02:05:59;;;;;;;26.85;14.35;;;27.10;99.90;;;;;;5084232;28;20027;-67
2023/01/20 02:08:26;;;;;;;26.77;15.52;;;27.20;99.90;;;;;;5083723;28;20024;-69
2023/01/20 02:10:52;;;;;;;31.05;15.48;;;27.30;99.90;;;;;;5084325;28;20024;-70
2023/01/20 02:13:19;;;;;;;26.35;13.82;;;27.30;99.90;;;;;;5086237;28;20012;-69
2023/01/20 02:16:21;;;;;;;29.98;13.70;;;27.40;99.90;;;;;;5086587;28;20058;-67
2023/01/20 02:18:48;;;;;;;22.83;12.52;;;27.40;99.90;;;;;;5086422;28;20025;-67
2023/01/20 02:21:34;;;;;;;29.05;14.18;;;27.50;99.90;;;;;;5083920;28;20481;-69
2023/01/20 02:24:00;;;;;;;27.75;15.63;;;27.50;99.90;;;;;;5084626;28;20093;-70
2023/01/20 02:26:47;;;;;;;28.50;15.73;;;27.60;99.90;;;;;;5083377;28;20345;-69
2023/01/20 02:29:25;;;;;;;32.35;16.23;;;27.70;99.90;;;;;;5084494;28;20487;-69
2023/01/20 02:31:55;;;;;;;36.08;17.88;;;27.70;99.90;;;;;;5084387;28;20028;-71
2023/01/20 02:34:23;;;;;;;32.47;15.73;;;27.80;99.90;;;;;;5083246;28;20573;-69
2023/01/20 02:36:55;;;;;;;27.70;16.27;;;27.80;99.90;;;;;;5082248;28;20024;-71
2023/01/20 02:39:27;;;;;;;30.38;15.77;;;27.80;99.90;;;;;;5083547;28;20016;-70
2023/01/20 02:42:11;;;;;;;30.65;16.33;;;27.80;99.90;;;;;;5084785;28;20097;-68
2023/01/20 02:44:42;;;;;;;25.38;15.60;;;27.90;99.90;;;;;;5082972;28;20025;-70
2023/01/20 02:47:48;;;;;;;26.65;13.57;;;27.90;99.90;;;;;;5082402;28;20024;-70
2023/01/20 02:50:25;;;;;;;32.50;16.83;;;28.00;99.90;;;;;;5076160;28;20094;-70
2023/01/20 02:52:55;;;;;;;32.55;15.95;;;28.10;99.90;;;;;;5084875;28;20081;-71
2023/01/20 02:55:45;;;;;;;29.08;15.70;;;28.10;99.90;;;;;;5092783;28;20078;-70
2023/01/20 02:58:22;;;;;;;31.13;15.63;;;28.10;99.90;;;;;;5092332;28;20074;-70
2023/01/20 03:00:54;;;;;;;27.65;15.82;;;28.10;99.90;;;;;;5092223;28;20376;-73
2023/01/20 03:03:27;;;;;;;24.73;15.10;;;28.20;99.90;;;;;;5092269;28;20063;-70
2023/01/20 03:05:57;;;;;;;27.05;14.60;;;28.20;99.90;;;;;;5092368;28;20020;-70
2023/01/20 03:08:28;;;;;;;26.10;14.45;;;28.20;99.90;;;;;;5092269;28;20169;-68
2023/01/20 03:10:58;;;;;;;22.15;14.93;;;28.20;99.90;;;;;;5091997;28;20053;-70
2023/01/20 03:13:31;;;;;;;26.83;14.05;;;28.30;99.90;;;;;;5092052;28;20013;-70
2023/01/20 03:16:02;;;;;;;27.42;16.00;;;28.30;99.90;;;;;;5092189;28;20028;-70
2023/01/20 03:18:30;;;;;;;24.75;14.52;;;28.30;99.90;;;;;;5092285;28;20279;-70
2023/01/20 03:20:58;;;;;;;26.60;13.90;;;28.40;99.90;;;;;;5091709;28;20020;-70
2023/01/20 03:23:27;;;;;;;42.30;29.05;;;28.40;99.90;;;;;;5077277;28;20095;-70
2023/01/20 03:25:54;;;;;;;23.00;10.90;;;28.40;99.90;;;;;;5083128;28;20018;-74
2023/01/20 03:28:21;;;;;;;23.27;10.00;;;28.40;99.90;;;;;;5083038;28;20024;-67
2023/01/20 03:30:47;;;;;;;23.80;11.48;;;28.40;99.90;;;;;;5082259;28;20031;-70
2023/01/20 03:33:15;;;;;;;17.77;11.32;;;28.50;99.90;;;;;;5084463;28;20072;-70
2023/01/20 03:35:42;;;;;;;22.45;11.00;;;28.50;99.90;;;;;;5086302;28;20042;-70
2023/01/20 03:38:09;;;;;;;22.75;9.93;;;28.60;99.90;;;;;;5085840;28;20024;-71
2023/01/20 03:40:45;;;;;;;13.32;7.40;;;28.60;99.90;;;;;;5085646;28;20088;-70
2023/01/20 03:43:36;;;;;;;12.65;8.43;;;28.70;99.90;;;;;;5082733;28;20020;-69
2023/01/20 03:46:10;;;;;;;21.10;10.02;;;28.80;99.90;;;;;;5076365;28;20024;-70
2023/01/20 03:48:49;;;;;;;20.70;8.73;;;28.90;99.90;;;;;;5079294;28;20031;-71
2023/01/20 03:51:24;;;;;;;26.05;8.15;;;29.00;99.90;;;;;;5085502;28;20024;-70
2023/01/20 03:53:53;;;;;;;16.60;7.75;;;29.00;99.90;;;;;;5087413;28;20077;-71
2023/01/20 03:56:23;;;;;;;16.05;8.95;;;29.10;99.90;;;;;;5092287;28;20027;-69
2023/01/20 03:58:53;;;;;;;19.90;8.88;;;29.10;99.90;;;;;;5094462;28;20384;-71
2023/01/20 04:01:24;;;;;;;17.15;8.90;;;29.00;99.90;;;;;;5091770;28;20024;-72
2023/01/20 04:03:53;;;;;;;17.70;8.23;;;29.00;99.90;;;;;;5093165;28;20062;-71
2023/01/20 04:06:22;;;;;;;26.08;14.90;;;29.10;99.90;;;;;;5093464;28;20461;-69
2023/01/20 04:08:55;;;;;;;21.40;11.00;;;29.10;99.90;;;;;;5094057;28;20028;-70
2023/01/20 04:11:22;;;;;;;19.80;10.77;;;29.10;99.90;;;;;;5082611;28;20021;-70
2023/01/20 04:13:50;;;;;;;14.38;9.02;;;29.10;99.90;;;;;;5077738;28;20012;-71
2023/01/20 04:16:19;;;;;;;13.20;9.02;;;29.10;99.90;;;;;;5077414;28;20417;-70
2023/01/20 04:18:48;;;;;;;18.98;8.63;;;29.20;99.90;;;;;;5076956;28;20531;-71
2023/01/20 04:21:25;;;;;;;18.67;8.80;;;29.20;99.90;;;;;;5083027;28;20074;-69
2023/01/20 04:23:57;;;;;;;15.32;7.95;;;29.20;99.90;;;;;;5088256;28;20132;-68
2023/01/20 04:26:24;;;;;;;20.73;8.05;;;29.30;99.90;;;;;;5084623;28;20044;-69
2023/01/20 04:28:50;;;;;;;13.30;6.82;;;29.30;99.90;;;;;;5086223;28;20040;-70
2023/01/20 04:31:17;;;;;;;16.15;8.10;;;29.30;99.90;;;;;;5083965;28;20055;-68
2023/01/20 04:33:44;;;;;;;21.08;9.38;;;29.40;99.90;;;;;;5082784;28;20496;-72
2023/01/20 04:36:10;;;;;;;19.38;9.13;;;29.40;99.90;;;;;;5085411;28;20028;-70
2023/01/20 04:38:37;;;;;;;15.00;8.93;;;29.40;99.90;;;;;;5084606;28;20009;-70
2023/01/20 04:41:03;;;;;;;15.02;8.77;;;29.40;99.90;;;;;;5085222;28;20093;-70
2023/01/20 04:43:30;;;;;;;17.92;8.82;;;29.40;99.90;;;;;;5085142;28;20020;-70
2023/01/20 04:45:56;;;;;;;24.48;10.73;;;29.40;99.90;;;;;;5084852;28;20017;-70
2023/01/20 04:48:23;;;;;;;22.90;10.20;;;29.40;99.90;;;;;;5086945;28;20363;-71
2023/01/20 04:50:49;;;;;;;20.02;9.32;;;29.40;99.90;;;;;;5083919;28;20020;-71
2023/01/20 04:53:18;;;;;;;18.83;8.70;;;29.50;99.90;;;;;;5085352;28;20061;-70
2023/01/20 04:55:46;;;;;;;13.90;7.45;;;29.50;99.90;;;;;;5086084;28;20174;-70
2023/01/20 04:58:13;;;;;;;18.58;8.63;;;29.60;99.90;;;;;;5084510;28;21509;-69
2023/01/20 05:00:40;;;;;;;19.67;9.07;;;29.70;99.90;;;;;;5091495;28;20081;-69
2023/01/20 05:03:06;;;;;;;18.45;8.20;;;29.70;99.90;;;;;;5093692;28;20020;-69
2023/01/20 05:05:33;;;;;;;16.08;9.10;;;29.70;99.90;;;;;;5094262;28;20016;-70
2023/01/20 05:08:00;;;;;;;20.95;9.65;;;29.80;99.90;;;;;;5089053;28;20031;-69
2023/01/20 05:10:26;;;;;;;15.43;9.32;;;29.80;99.90;;;;;;5083521;28;20012;-77
2023/01/20 05:12:53;;;;;;;18.05;9.43;;;29.80;99.90;;;;;;5085320;28;20461;-74
2023/01/20 05:15:19;;;;;;;16.45;9.40;;;29.90;99.90;;;;;;5085166;28;20024;-74
2023/01/20 05:17:46;;;;;;;17.08;9.40;;;29.90;99.90;;;;;;5083607;28;20368;-70
2023/01/20 05:20:13;;;;;;;23.13;9.35;;;30.00;99.90;;;;;;5095010;28;20032;-70
2023/01/20 05:22:40;;;;;;;17.83;9.23;;;30.00;99.90;;;;;;5095035;28;20031;-71
2023/01/20 05:25:07;;;;;;;18.08;9.10;;;30.20;99.90;;;;;;5094949;28;20021;-70
2023/01/20 05:27:35;;;;;;;13.23;7.45;;;30.30;99.90;;;;;;5094897;28;20077;-72
2023/01/20 05:30:04;;;;;;;15.30;9.43;;;30.20;99.90;;;;;;5094933;28;20093;-72
2023/01/20 05:32:30;;;;;;;20.25;9.27;;;30.30;99.90;;;;;;5094500;28;20500;-73
2023/01/20 05:34:57;;;;;;;16.48;8.80;;;30.30;99.90;;;;;;5094752;28;20043;-74
2023/01/20 05:37:24;;;;;;;15.25;9.15;;;30.40;99.90;;;;;;5094790;28;20090;-73
2023/01/20 05:39:50;;;;;;;14.00;7.70;;;30.40;99.90;;;;;;5094567;28;20048;-72
2023/01/20 05:42:16;;;;;;;19.73;9.50;;;30.50;99.90;;;;;;5094747;28;20098;-72
2023/01/20 05:44:43;;;;;;;13.77;8.25;;;30.50;99.90;;;;;;5102231;28;20031;-74
2023/01/20 05:47:10;;;;;;;13.10;8.77;;;30.60;99.90;;;;;;5099410;28;20154;-70
2023/01/20 05:49:36;;;;;;;16.80;8.93;;;30.60;99.90;;;;;;5088610;28;20016;-71
2023/01/20 05:52:03;;;;;;;15.98;8.82;;;30.60;99.90;;;;;;5083147;28;20020;-70
2023/01/20 05:54:29;;;;;;;19.23;8.70;;;30.70;99.90;;;;;;5082792;28;20028;-73
2023/01/20 05:56:56;;;;;;;14.10;7.82;;;30.70;99.90;;;;;;5082354;28;20457;-72
2023/01/20 05:59:23;;;;;;;15.80;7.43;;;30.80;99.90;;;;;;5086663;28;20042;-70
2023/01/20 06:01:49;;;;;;;16.52;8.75;;;30.70;99.90;;;;;;5083787;28;20020;-70
2023/01/20 06:04:16;;;;;;;14.57;9.32;;;30.80;99.90;;;;;;5082714;28;20511;-70
2023/01/20 06:06:42;;;;;;;19.23;8.77;;;30.90;99.90;;;;;;5089657;28;20039;-70
2023/01/20 06:09:09;;;;;;;12.43;8.77;;;30.80;99.90;;;;;;5086660;28;20469;-75
2023/01/20 06:11:36;;;;;;;11.25;8.55;;;30.80;99.90;;;;;;5094157;28;20388;-74
2023/01/20 06:14:03;;;;;;;21.10;9.38;;;30.70;99.90;;;;;;5093981;28;20035;-70
2023/01/20 06:16:29;;;;;;;16.10;9.73;;;30.70;99.90;;;;;;5094275;28;20020;-69
2023/01/20 06:18:56;;;;;;;19.13;9.55;;;30.70;99.90;;;;;;5092810;28;20276;-70
2023/01/20 06:21:23;;;;;;;15.18;9.65;;;30.60;99.90;;;;;;5092747;28;20028;-70
2023/01/20 06:23:51;;;;;;;14.55;9.48;;;30.60;99.90;;;;;;5093391;28;20040;-72
2023/01/20 06:26:18;;;;;;;15.40;9.75;;;30.70;99.90;;;;;;5093521;28;20036;-71
2023/01/20 06:28:44;;;;;;;17.80;9.98;;;30.70;99.90;;;;;;5093630;28;20032;-71
2023/01/20 06:31:13;;;;;;;23.75;14.57;;;30.70;99.90;;;;;;5093976;28;20103;-69
2023/01/20 06:33:40;;;;;;;25.33;12.75;;;30.70;99.90;;;;;;5093719;28;20055;-71
2023/01/20 06:36:09;;;;;;;23.75;16.70;;;30.80;99.90;;;;;;5093867;28;20073;-68
2023/01/20 06:38:36;;;;;;;20.80;12.70;;;30.80;99.90;;;;;;5093869;28;20023;-68
2023/01/20 06:41:06;;;;;;;17.10;10.43;;;30.80;99.90;;;;;;5094022;28;20070;-70
2023/01/20 06:43:33;;;;;;;16.98;9.45;;;30.90;99.90;;;;;;5093849;28;20111;-72
2023/01/20 06:46:01;;;;;;;34.90;21.85;;;30.90;99.90;;;;;;5090213;28;20032;-69
2023/01/20 06:48:29;;;;;;;17.70;11.70;;;30.90;99.90;;;;;;5081762;28;20377;-67
2023/01/20 06:51:05;;;;;;;22.55;13.38;;;30.90;99.90;;;;;;5084464;28;20024;-69
2023/01/20 06:53:32;;;;;;;20.52;11.82;;;30.90;99.90;;;;;;5093579;28;20016;-69
2023/01/20 06:56:00;;;;;;;15.40;10.57;;;31.00;99.90;;;;;;5083121;28;20532;-70
2023/01/20 06:58:29;;;;;;;19.15;10.80;;;31.10;99.90;;;;;;5083418;28;20101;-70
2023/01/20 07:00:56;;;;;;;17.80;10.40;;;31.20;99.90;;;;;;5078397;28;20020;-71
2023/01/20 07:03:23;;;;;;;13.05;8.85;;;31.20;99.90;;;;;;5089637;28;20025;-70
2023/01/20 07:05:58;;;;;;;18.83;8.15;;;31.30;99.90;;;;;;5090168;28;20024;-70
2023/01/20 07:08:24;;;;;;;12.70;8.50;;;31.20;99.90;;;;;;5085964;28;20408;-68
2023/01/20 07:10:51;;;;;;;17.98;9.68;;;31.10;99.90;;;;;;5085634;28;20054;-71
2023/01/20 07:13:18;;;;;;;12.73;6.32;;;31.00;99.90;;;;;;5085150;28;20445;-68
2023/01/20 07:15:44;;;;;;;27.35;8.77;;;30.80;99.90;;;;;;5089780;28;20659;-70
2023/01/20 07:18:11;;;;;;;15.45;6.53;;;30.40;99.90;;;;;;5088073;28;20384;-74
2023/01/20 07:20:37;;;;;;;15.50;6.68;;;30.00;99.90;;;;;;5085743;28;20017;-69
2023/01/20 07:23:04;;;;;;;14.65;6.05;;;29.50;99.90;;;;;;5087533;28;20396;-70
2023/01/20 07:25:31;;;;;;;8.85;4.97;;;29.20;99.90;;;;;;5107195;28;20468;-72
2023/01/20 07:27:58;;;;;;;7.43;3.53;;;29.00;99.90;;;;;;5092890;28;20054;-71
2023/01/20 07:30:24;;;;;;;7.25;4.88;;;28.80;99.90;;;;;;5086180;28;20343;-72
2023/01/20 07:32:51;;;;;;;8.90;5.13;;;28.70;99.90;;;;;;5085554;28;20028;-72
2023/01/20 07:35:18;;;;;;;11.27;5.93;;;28.60;99.90;;;;;;5095338;28;20595;-70
2023/01/20 07:37:44;;;;;;;10.82;6.15;;;28.50;99.90;;;;;;5088911;28;20013;-71
2023/01/20 07:40:11;;;;;;;12.02;7.38;;;28.40;99.90;;;;;;5085285;28;20024;-72
2023/01/20 07:42:38;;;;;;;16.83;10.63;;;28.30;99.90;;;;;;5082171;28;20020;-73
2023/01/20 07:45:05;;;;;;;23.75;12.57;;;28.20;99.90;;;;;;5079290;28;20028;-72
2023/01/20 07:47:32;;;;;;;15.68;9.70;;;28.10;99.90;;;;;;5076600;28;20377;-70
2023/01/20 07:49:58;;;;;;;15.95;6.90;;;28.10;99.90;;;;;;5079141;28;20492;-71
2023/01/20 07:52:25;;;;;;;8.27;5.93;;;28.00;99.90;;;;;;5094921;28;20361;-68
2023/01/20 07:54:51;;;;;;;12.88;6.10;;;27.90;99.90;;;;;;5087486;28;20436;-71
2023/01/20 07:57:18;;;;;;;10.73;5.97;;;27.90;99.90;;;;;;5085201;28;20284;-70
2023/01/20 07:59:44;;;;;;;9.35;6.18;;;27.90;99.90;;;;;;5086951;28;20469;-71
2023/01/20 08:02:11;;;;;;;7.80;5.50;;;27.90;99.90;;;;;;5086318;28;20023;-70
2023/01/20 08:04:37;;;;;;;9.98;5.75;;;27.70;99.90;;;;;;5096012;28;20059;-71
2023/01/20 08:07:04;;;;;;;13.07;4.85;;;27.60;99.90;;;;;;5085315;28;20426;-71
2023/01/20 08:09:30;;;;;;;11.85;4.75;;;27.50;99.90;;;;;;5086180;28;20024;-73
2023/01/20 08:11:57;;;;;;;14.70;5.72;;;27.50;99.90;;;;;;5087945;28;20043;-74
2023/01/20 08:14:24;;;;;;;12.77;5.55;;;27.40;99.90;;;;;;5087183;28;20136;-68
2023/01/20 08:16:51;;;;;;;11.63;5.38;;;27.40;99.90;;;;;;5079488;28;20020;-70
2023/01/20 08:19:18;;;;;;;13.50;6.07;;;27.40;99.90;;;;;;5079342;28;20073;-73
2023/01/20 08:21:44;;;;;;;12.77;5.90;;;27.40;99.90;;;;;;5079395;28;20473;-69
2023/01/20 08:24:11;;;;;;;14.02;5.43;;;27.50;99.90;;;;;;5080238;28;20062;-72
2023/01/20 08:26:37;;;;;;;10.32;4.88;;;27.50;99.90;;;;;;5079560;28;20044;-73
2023/01/20 08:29:08;;;;;;;7.97;4.78;;;27.50;99.90;;;;;;5078120;28;20067;-72
2023/01/20 08:31:35;;;;;;;8.73;5.35;;;27.50;99.90;;;;;;5077851;28;20055;-72
2023/01/20 08:34:01;;;;;;;17.55;6.65;;;27.60;99.90;;;;;;5092066;28;20460;-71
2023/01/20 08:36:32;;;;;;;10.65;5.63;;;27.70;99.90;;;;;;5092757;28;20012;-70
2023/01/20 08:39:01;;;;;;;13.48;5.68;;;27.70;99.90;;;;;;5094170;28;20485;-70
2023/01/20 08:41:32;;;;;;;19.75;6.05;;;27.70;99.90;;;;;;5086607;28;20024;-71
2023/01/20 08:44:01;;;;;;;17.77;8.80;;;27.80;99.90;;;;;;5093120;28;20208;-71
2023/01/20 08:46:28;;;;;;;13.35;8.00;;;27.80;99.90;;;;;;5088842;28;20133;-71
2023/01/20 08:48:55;;;;;;;11.57;6.05;;;27.80;99.90;;;;;;5084794;28;20023;-71
2023/01/20 08:51:26;;;;;;;8.70;6.30;;;27.80;99.90;;;;;;5086071;28;20473;-71
2023/01/20 08:53:52;;;;;;;10.52;6.60;;;27.80;99.90;;;;;;5085706;28;20008;-71
2023/01/20 08:56:19;;;;;;;10.95;7.00;;;27.80;99.90;;;;;;5093568;28;20027;-71
2023/01/20 08:58:46;;;;;;;10.38;6.88;;;27.90;99.90;;;;;;5086083;28;20486;-70
2023/01/20 09:01:17;;;;;;;12.82;9.65;;;27.90;99.90;;;;;;5084956;28;20050;-71
2023/01/20 09:03:45;;;;;;;25.92;16.15;;;27.90;99.90;;;;;;5084202;28;20021;-73
2023/01/20 09:06:12;;;;;;;35.35;24.15;;;27.90;99.90;;;;;;5085196;28;20032;-70
2023/01/20 09:08:39;;;;;;;36.50;23.63;;;27.90;99.90;;;;;;5076122;28;20488;-70
2023/01/20 09:11:11;;;;;;;28.65;21.90;;;27.80;99.90;;;;;;5099763;28;20052;-69
2023/01/20 09:13:38;;;;;;;33.47;20.90;;;27.80;99.90;;;;;;5091763;28;20481;-71
2023/01/20 09:16:05;;;;;;;28.58;15.75;;;27.80;99.90;;;;;;5083594;28;20100;-70
2023/01/20 09:18:33;;;;;;;31.48;16.10;;;27.80;99.90;;;;;;5085282;28;20026;-69
2023/01/20 09:21:00;;;;;;;41.40;21.30;;;27.80;99.90;;;;;;5085437;28;20021;-69
2023/01/20 09:23:27;;;;;;;52.28;25.63;;;27.80;99.90;;;;;;5083672;28;20078;-70
2023/01/20 09:25:58;;;;;;;50.88;27.30;;;27.80;99.90;;;;;;5086698;28;20061;-70
2023/01/20 09:28:24;;;;;;;45.20;25.63;;;27.80;99.90;;;;;;5097165;28;20028;-70
2023/01/20 09:30:58;;;;;;;43.45;27.75;;;27.80;99.90;;;;;;5090194;28;20032;-73
2023/01/20 09:33:24;;;;;;;39.65;27.40;;;27.70;99.90;;;;;;5094218;28;20155;-72
2023/01/20 09:36:00;;;;;;;36.53;23.00;;;27.60;99.90;;;;;;5108115;28;20383;-72
2023/01/20 09:44:04;;;;;;;23.67;16.90;;;27.30;99.90;;;;;;5083839;28;20028;-72
2023/01/20 09:47:18;;;;;;;25.35;16.13;;;27.20;99.90;;;;;;5084277;28;20012;-70
2023/01/20 09:55:28;;;;;;;17.05;10.55;;;27.00;99.90;;;;;;5025520;28;20474;-70
2023/01/20 09:58:07;;;;;;;13.57;10.73;;;26.90;99.90;;;;;;5067685;28;20036;-70
2023/01/20 10:00:34;;;;;;;17.20;10.95;;;26.90;99.90;;;;;;5081152;28;20008;-70
2023/01/20 10:03:19;;;;;;;14.70;9.88;;;26.90;99.90;;;;;;5079485;28;20112;-68
2023/01/20 10:05:53;;;;;;;16.15;10.25;;;26.80;99.90;;;;;;5078801;28;20052;-68
2023/01/20 10:08:30;;;;;;;13.07;10.02;;;26.80;99.90;;;;;;5086919;28;20027;-68
2023/01/20 10:11:08;;;;;;;15.20;9.27;;;26.80;99.90;;;;;;5090514;28;20062;-69
2023/01/20 10:13:45;;;;;;;11.98;8.35;;;26.80;99.90;;;;;;5087295;28;20024;-68
2023/01/20 10:16:25;;;;;;;11.43;7.72;;;26.80;99.90;;;;;;5090722;28;20478;-69
2023/01/20 10:19:00;;;;;;;15.32;9.82;;;26.70;99.90;;;;;;5100918;28;20028;-71
2023/01/20 10:21:30;;;;;;;14.13;9.40;;;26.70;99.90;;;;;;5087858;28;20028;-70
2023/01/20 10:24:15;;;;;;;13.45;9.45;;;26.50;99.90;;;;;;5084043;28;20040;-71
2023/01/20 10:26:53;;;;;;;12.82;9.88;;;26.60;99.90;;;;;;5084872;28;20025;-70
2023/01/20 10:29:34;;;;;;;20.13;12.05;;;26.60;99.90;;;;;;5092516;28;20020;-68
2023/01/20 10:32:03;;;;;;;36.00;28.40;;;26.60;99.90;;;;;;5082906;28;20492;-72
2023/01/20 10:34:45;;;;;;;53.80;37.67;;;26.70;99.90;;;;;;5079874;28;20040;-72
2023/01/20 10:37:15;;;;;;;23.80;15.52;;;26.70;99.90;;;;;;5074309;28;20021;-71
2023/01/20 10:39:47;;;;;;;21.30;13.82;;;26.60;99.90;;;;;;5074913;28;20442;-72
2023/01/20 10:42:16;;;;;;;18.17;12.65;;;26.50;99.90;;;;;;5083583;28;20039;-68
2023/01/20 10:44:43;;;;;;;19.25;12.73;;;26.50;99.90;;;;;;5104253;28;20039;-72
2023/01/20 10:47:38;;;;;;;20.92;16.17;;;26.50;99.90;;;;;;5095484;28;20032;-68
2023/01/20 10:50:15;;;;;;;19.35;13.27;;;26.40;99.90;;;;;;5097009;28;20464;-67
2023/01/20 10:53:13;;;;;;;23.23;13.30;;;26.40;99.90;;;;;;5095088;28;20101;-73
2023/01/20 10:55:42;;;;;;;15.55;11.98;;;26.30;99.90;;;;;;5093794;28;20055;-71
2023/01/20 10:58:16;;;;;;;15.10;10.60;;;26.40;99.90;;;;;;5093532;28;20035;-70
2023/01/20 11:00:43;;;;;;;18.25;11.07;;;26.30;99.90;;;;;;5093649;28;20073;-66
2023/01/20 11:03:15;;;;;;;20.42;12.90;;;26.30;99.90;;;;;;5093170;28;20037;-68
2023/01/20 11:05:42;;;;;;;18.80;13.80;;;26.30;99.90;;;;;;5092112;28;20024;-67
2023/01/20 11:08:19;;;;;;;19.58;12.73;;;26.30;99.90;;;;;;5091266;28;20484;-66
2023/01/20 11:10:48;;;;;;;19.70;13.85;;;26.30;99.90;;;;;;5091288;28;20035;-66
2023/01/20 11:13:15;;;;;;;17.50;12.43;;;26.30;99.90;;;;;;5091337;28;20073;-65
2023/01/20 11:15:47;;;;;;;21.02;14.10;;;26.30;99.90;;;;;;5091162;28;20023;-67
2023/01/20 11:18:13;;;;;;;19.83;14.73;;;26.30;99.90;;;;;;5100387;28;20034;-68
2023/01/20 11:20:55;;;;;;;22.85;14.05;;;26.30;99.90;;;;;;5112885;28;20154;-71
2023/01/20 11:23:31;;;;;;;20.08;13.05;;;26.30;99.90;;;;;;5113666;28;20383;-70
2023/01/20 11:26:08;;;;;;;19.30;11.13;;;26.20;99.90;;;;;;5113187;28;20089;-71
2023/01/20 11:28:47;;;;;;;18.63;11.73;;;26.20;99.90;;;;;;5095299;28;20380;-71
2023/01/20 11:31:15;;;;;;;19.50;12.32;;;26.30;99.90;;;;;;5113219;28;20060;-69
2023/01/20 11:33:58;;;;;;;25.25;13.75;;;26.30;99.90;;;;;;5113360;28;20165;-70
2023/01/20 11:36:26;;;;;;;25.08;14.65;;;26.20;99.90;;;;;;5113495;28;20035;-68
2023/01/20 11:38:55;;;;;;;21.08;13.25;;;26.20;99.90;;;;;;5113366;28;20028;-69
2023/01/20 11:41:22;;;;;;;18.20;11.32;;;26.10;99.90;;;;;;5096155;28;20114;-68
2023/01/20 11:43:51;;;;;;;22.13;12.75;;;26.00;99.90;;;;;;5081233;28;20069;-67
2023/01/20 11:46:25;;;;;;;24.17;12.30;;;26.00;99.90;;;;;;5082950;28;20051;-72
2023/01/20 11:49:14;;;;;;;21.23;13.05;;;26.00;99.90;;;;;;5083241;28;20079;-70
2023/01/20 11:51:53;;;;;;;23.00;12.07;;;25.90;99.90;;;;;;5081437;28;20036;-69
2023/01/20 11:54:22;;;;;;;17.55;10.70;;;25.90;99.90;;;;;;5082504;28;20078;-68
2023/01/20 11:57:04;;;;;;;16.88;11.30;;;25.90;99.90;;;;;;5085040;28;20099;-71
2023/01/20 11:59:33;;;;;;;20.70;12.00;;;25.90;99.90;;;;;;5084849;28;20468;-71
2023/01/20 12:02:09;;;;;;;20.17;12.38;;;25.90;99.90;;;;;;5085051;28;20036;-72
2023/01/20 12:04:45;;;;;;;20.73;11.30;;;26.00;99.90;;;;;;5082433;28;20031;-74
2023/01/20 12:07:20;;;;;;;15.55;11.10;;;25.90;99.90;;;;;;5078723;28;20047;-70
2023/01/20 12:09:51;;;;;;;24.02;12.98;;;25.90;99.90;;;;;;5079263;28;20048;-70
2023/01/20 12:12:37;;;;;;;16.00;11.32;;;25.90;99.90;;;;;;5089382;28;20021;-70
2023/01/20 12:15:11;;;;;;;16.70;10.55;;;25.90;99.90;;;;;;5090692;28;20021;-72
2023/01/20 12:17:58;;;;;;;17.52;11.13;;;25.90;99.90;;;;;;5088371;28;20012;-71
2023/01/20 12:20:29;;;;;;;22.70;12.60;;;26.00;99.90;;;;;;5084765;28;20021;-76
2023/01/20 12:23:06;;;;;;;21.67;11.25;;;26.10;99.90;;;;;;5084223;28;20108;-69
2023/01/20 12:25:42;;;;;;;25.00;13.23;;;26.10;99.90;;;;;;5084017;28;20021;-69
2023/01/20 12:28:15;;;;;;;22.45;11.63;;;26.10;99.90;;;;;;5084535;28;20032;-69
2023/01/20 12:31:07;;;;;;;21.55;10.07;;;26.10;99.90;;;;;;5084753;28;20016;-70
2023/01/20 12:33:38;;;;;;;25.15;11.05;;;26.10;99.90;;;;;;5085378;28;20075;-68
2023/01/20 12:36:28;;;;;;;22.65;11.18;;;26.10;99.90;;;;;;5085021;28;20025;-68
2023/01/20 12:39:16;;;;;;;25.50;12.75;;;26.10;99.90;;;;;;5089514;28;20415;-70
2023/01/20 12:42:14;;;;;;;21.00;11.40;;;26.10;99.90;;;;;;5095785;28;20078;-68
2023/01/20 12:45:03;;;;;;;24.52;10.13;;;26.10;99.90;;;;;;5096288;28;20031;-69
2023/01/20 12:47:38;;;;;;;18.48;10.55;;;26.10;99.90;;;;;;5107735;28;20093;-70
2023/01/20 12:50:45;;;;;;;20.73;11.40;;;26.00;99.90;;;;;;5096102;28;20024;-70
2023/01/20 12:53:19;;;;;;;17.17;10.98;;;26.00;99.90;;;;;;5096074;28;20039;-69
2023/01/20 12:55:56;;;;;;;22.65;12.38;;;26.10;99.90;;;;;;5096083;28;20089;-69
2023/01/20 12:58:45;;;;;;;21.33;12.85;;;26.10;99.90;;;;;;5096045;28;20028;-69